Time;durP1;ratioP1;P1;durP2;ratioP2;P2;SDS_P1;SDS_P2;PMS_P1;PMS_P2;Temp;Humidity;BMP_temperature;BMP_pressure;BME280_temperature;BME280_humidity;BME280_pressure;Samples;Min_cycle;Max_cycle;Signal;HPM_P1;HPM_P2
2022/08/11 00:00:35;;;;;;;12.77;4.53;;;18.50;93.90;;;;;;5037554;28;20470;-70
2022/08/11 00:03:06;;;;;;;9.17;5.17;;;18.60;93.60;;;;;;5055480;28;20458;-70
2022/08/11 00:05:43;;;;;;;12.50;4.93;;;18.50;93.70;;;;;;5055214;28;20971;-70
2022/08/11 00:08:11;;;;;;;9.70;4.50;;;18.60;93.80;;;;;;5037318;28;20515;-70
2022/08/11 00:10:39;;;;;;;6.30;3.23;;;18.60;94.10;;;;;;5055396;28;20786;-70
2022/08/11 00:13:08;;;;;;;9.77;4.67;;;18.70;93.80;;;;;;5055029;28;20465;-70
2022/08/11 00:15:43;;;;;;;7.73;3.90;;;18.70;93.80;;;;;;5055008;28;20458;-70
2022/08/11 00:18:12;;;;;;;7.20;4.03;;;18.60;94.00;;;;;;5038136;28;20460;-70
2022/08/11 00:20:43;;;;;;;8.67;4.07;;;18.40;94.50;;;;;;5055049;28;20462;-70
2022/08/11 00:23:13;;;;;;;8.20;3.97;;;18.20;95.60;;;;;;5055081;28;20940;-70
2022/08/11 00:25:43;;;;;;;9.17;3.27;;;18.20;95.70;;;;;;5054722;28;20445;-70
2022/08/11 00:28:30;;;;;;;15.90;5.77;;;18.20;95.50;;;;;;5037690;28;20819;-70
2022/08/11 00:31:01;;;;;;;4.77;2.97;;;18.40;94.70;;;;;;5037212;28;20548;-70
2022/08/11 00:33:35;;;;;;;6.33;3.10;;;18.50;93.90;;;;;;5054903;28;20473;-70
2022/08/11 00:36:04;;;;;;;5.30;3.27;;;18.30;93.80;;;;;;5054382;28;20521;-70
2022/08/11 00:38:35;;;;;;;5.83;3.07;;;18.30;94.40;;;;;;5054985;28;20458;-71
2022/08/11 00:41:20;;;;;;;6.80;3.50;;;18.10;95.10;;;;;;5054467;28;20469;-70
2022/08/11 00:44:23;;;;;;;7.13;3.10;;;17.80;95.90;;;;;;5055044;28;20461;-70
2022/08/11 00:47:03;;;;;;;6.97;4.30;;;17.80;96.00;;;;;;5054350;28;20458;-70
2022/08/11 00:49:46;;;;;;;6.60;3.10;;;18.00;95.80;;;;;;5054408;28;20469;-70
2022/08/11 00:52:36;;;;;;;5.40;3.23;;;18.00;95.50;;;;;;5037732;28;20458;-70
2022/08/11 00:55:45;;;;;;;10.03;3.97;;;18.00;95.80;;;;;;5054428;28;20458;-70
2022/08/11 00:58:54;;;;;;;4.30;2.50;;;17.90;95.90;;;;;;5042821;28;20485;-70
2022/08/11 01:01:35;;;;;;;6.93;3.63;;;17.90;96.10;;;;;;5029224;28;20462;-70
2022/08/11 01:04:41;;;;;;;6.80;2.93;;;17.80;96.30;;;;;;5053479;28;20489;-70
2022/08/11 01:07:37;;;;;;;5.00;2.93;;;17.90;96.20;;;;;;5054047;28;20466;-70
2022/08/11 01:10:31;;;;;;;4.70;2.80;;;17.90;96.20;;;;;;5039463;28;20927;-70
2022/08/11 01:13:15;;;;;;;6.40;2.70;;;17.90;96.50;;;;;;5054019;28;20462;-70
2022/08/11 01:16:23;;;;;;;6.30;4.00;;;17.80;96.90;;;;;;5053828;28;20466;-70
2022/08/11 01:19:32;;;;;;;5.20;3.13;;;17.40;97.60;;;;;;5032974;28;20470;-70
2022/08/11 01:22:32;;;;;;;5.00;3.20;;;17.30;98.00;;;;;;5034214;28;20986;-70
2022/08/11 01:25:41;;;;;;;4.30;2.70;;;17.50;98.00;;;;;;5038971;28;20855;-70
2022/08/11 01:28:41;;;;;;;3.77;2.70;;;17.30;98.00;;;;;;5053855;28;20458;-70
2022/08/11 01:31:38;;;;;;;6.93;2.97;;;17.30;98.00;;;;;;5053691;28;20465;-70
2022/08/11 01:34:52;;;;;;;4.60;3.23;;;17.30;98.00;;;;;;5053786;28;20461;-70
2022/08/11 01:37:53;;;;;;;4.53;3.00;;;17.30;98.00;;;;;;4975741;28;20527;-69
2022/08/11 01:40:48;;;;;;;3.83;2.57;;;17.40;98.00;;;;;;5052522;28;20480;-70
2022/08/11 01:46:52;;;;;;;5.27;3.27;;;17.10;98.00;;;;;;4989853;28;20519;-70
2022/08/11 01:49:27;;;;;;;5.03;2.67;;;17.00;98.00;;;;;;5040665;28;20978;-70
2022/08/11 01:52:19;;;;;;;3.70;2.37;;;16.90;98.00;;;;;;5053040;28;20457;-70
2022/08/11 01:55:03;;;;;;;3.07;2.30;;;17.10;98.00;;;;;;5053301;28;20454;-70
2022/08/11 01:57:39;;;;;;;3.10;2.03;;;17.20;98.00;;;;;;5053060;28;20569;-70
2022/08/11 02:00:10;;;;;;;4.17;2.50;;;17.30;98.00;;;;;;5053308;28;20458;-70
2022/08/11 02:02:52;;;;;;;6.23;3.07;;;17.10;98.00;;;;;;5053167;28;20489;-71
2022/08/11 02:06:00;;;;;;;4.63;2.50;;;16.90;98.00;;;;;;5035696;28;20462;-71
2022/08/11 02:08:47;;;;;;;4.23;2.43;;;17.00;98.00;;;;;;5010668;28;21044;-72
2022/08/11 02:11:32;;;;;;;4.07;2.67;;;16.90;98.00;;;;;;5010460;28;20470;-70
2022/08/11 02:14:13;;;;;;;5.47;2.80;;;16.90;98.00;;;;;;5041984;28;20461;-71
2022/08/11 02:16:53;;;;;;;7.20;2.97;;;17.00;98.00;;;;;;5052724;28;20508;-71
2022/08/11 02:25:20;;;;;;;2.57;2.10;;;16.70;98.00;;;;;;5052826;28;20831;-71
2022/08/11 02:27:55;;;;;;;4.47;2.58;;;16.80;98.00;;;;;;5052440;28;20482;-70
2022/08/11 02:30:28;;;;;;;4.33;2.50;;;16.90;98.00;;;;;;5052878;28;20214;-71
2022/08/11 02:33:23;;;;;;;4.00;2.53;;;16.70;98.00;;;;;;5034734;28;21023;-71
2022/08/11 02:36:01;;;;;;;3.03;2.27;;;16.60;98.00;;;;;;5052487;28;20470;-72
2022/08/11 02:38:33;;;;;;;4.00;2.50;;;16.50;98.00;;;;;;5052636;28;20508;-72
2022/08/11 02:42:21;;;;;;;3.00;2.20;;;16.40;98.00;;;;;;5052572;28;20454;-71
2022/08/11 02:44:21;;;;;;;3.70;2.37;;;16.10;98.00;;;;;;5052409;28;20520;-72
2022/08/11 02:47:16;;;;;;;2.63;1.90;;;16.20;98.00;;;;;;5052521;28;20461;-71
2022/08/11 02:49:53;;;;;;;2.63;1.90;;;16.20;98.00;;;;;;5052587;28;20488;-72
2022/08/11 02:52:32;;;;;;;3.73;2.67;;;16.40;98.00;;;;;;5052270;28;20846;-72
2022/08/11 02:55:18;;;;;;;4.67;2.67;;;16.50;98.00;;;;;;5052213;28;20466;-71
2022/08/11 02:57:53;;;;;;;3.17;2.10;;;16.50;98.00;;;;;;5051702;28;20481;-71
2022/08/11 03:00:25;;;;;;;2.70;2.20;;;16.30;98.00;;;;;;5052368;28;20473;-71
2022/08/11 03:03:07;;;;;;;2.80;2.07;;;16.40;98.00;;;;;;5052066;28;20854;-70
2022/08/11 03:05:50;;;;;;;2.93;2.30;;;16.60;98.00;;;;;;5051996;28;20465;-72
2022/08/11 03:08:39;;;;;;;3.20;2.13;;;16.60;98.00;;;;;;5052086;28;20453;-71
2022/08/11 03:17:20;;;;;;;2.93;2.47;;;16.20;98.00;;;;;;5051688;28;20499;-71
2022/08/11 03:19:58;;;;;;;4.87;2.67;;;16.00;98.00;;;;;;5051206;28;20461;-71
2022/08/11 03:22:32;;;;;;;3.27;2.20;;;15.90;98.00;;;;;;5051191;28;21006;-71
2022/08/11 03:25:08;;;;;;;5.40;2.77;;;16.00;98.00;;;;;;5050480;28;20457;-71
2022/08/11 03:27:49;;;;;;;4.57;2.30;;;16.10;98.00;;;;;;5051000;28;20975;-71
2022/08/11 03:30:20;;;;;;;6.03;3.20;;;16.10;98.00;;;;;;5051187;28;20462;-72
2022/08/11 03:36:14;;;;;;;4.77;2.53;;;15.80;98.00;;;;;;5051276;28;20453;-71
2022/08/11 03:39:01;;;;;;;3.47;2.30;;;15.70;98.00;;;;;;5051570;28;20793;-73
2022/08/11 03:41:43;;;;;;;3.37;2.30;;;15.60;98.00;;;;;;5034783;28;20537;-71
2022/08/11 03:44:25;;;;;;;4.73;2.53;;;15.60;98.00;;;;;;5052067;28;20531;-71
2022/08/11 03:47:32;;;;;;;4.73;2.70;;;15.70;98.00;;;;;;5051918;28;20552;-70
2022/08/11 03:50:13;;;;;;;3.50;2.17;;;15.60;98.00;;;;;;5038958;28;20979;-72
2022/08/11 03:52:53;;;;;;;2.47;1.97;;;15.60;98.00;;;;;;5051462;28;20456;-70
2022/08/11 03:55:32;;;;;;;4.83;2.57;;;15.50;98.00;;;;;;5051639;28;20461;-71
2022/08/11 03:58:30;;;;;;;4.05;2.50;;;15.50;98.00;;;;;;5050580;28;20513;-71
2022/08/11 04:01:28;;;;;;;3.50;2.40;;;15.50;98.00;;;;;;5051380;28;20662;-71
2022/08/11 04:04:37;;;;;;;3.80;2.50;;;15.60;98.00;;;;;;5033713;28;20536;-71
2022/08/11 04:07:43;;;;;;;4.50;2.87;;;15.50;98.00;;;;;;5009063;28;20458;-73
2022/08/11 04:10:37;;;;;;;3.97;2.27;;;15.40;98.00;;;;;;5051424;28;20461;-71
2022/08/11 04:13:40;;;;;;;2.83;2.00;;;15.40;98.00;;;;;;5051385;28;20460;-71
2022/08/11 04:16:27;;;;;;;3.10;1.83;;;15.40;98.00;;;;;;5051079;28;20457;-71
2022/08/11 04:19:30;;;;;;;3.40;2.20;;;15.40;98.00;;;;;;5051317;28;20508;-70
2022/08/11 04:22:35;;;;;;;9.33;2.63;;;15.40;98.00;;;;;;5049682;28;20476;-71
2022/08/11 04:25:29;;;;;;;3.40;2.07;;;15.30;98.00;;;;;;5033788;28;20466;-70
2022/08/11 04:28:30;;;;;;;2.40;1.77;;;15.40;98.00;;;;;;5051208;28;20495;-70
2022/08/11 04:31:22;;;;;;;2.87;1.97;;;15.40;98.00;;;;;;5051350;28;20565;-69
2022/08/11 04:34:27;;;;;;;3.97;2.23;;;15.50;98.00;;;;;;5049150;28;20462;-72
2022/08/11 04:37:36;;;;;;;3.20;2.23;;;15.60;98.00;;;;;;5052189;28;20458;-71
2022/08/11 04:40:35;;;;;;;2.80;2.30;;;15.60;98.00;;;;;;5034735;28;20450;-71
2022/08/11 04:43:37;;;;;;;3.73;2.40;;;15.60;98.00;;;;;;5036686;28;20468;-71
2022/08/11 04:46:47;;;;;;;3.77;2.60;;;15.60;98.00;;;;;;5054739;28;20453;-71
2022/08/11 05:02:56;;;;;;;3.00;1.93;;;15.80;98.00;;;;;;5054430;28;20445;-70
2022/08/11 05:05:31;;;;;;;4.00;2.30;;;15.70;98.00;;;;;;5054265;28;20469;-70
2022/08/11 05:08:32;;;;;;;3.60;2.40;;;15.70;98.00;;;;;;5054225;28;20984;-70
2022/08/11 05:11:33;;;;;;;2.43;2.23;;;15.70;98.00;;;;;;5052468;28;20875;-70
2022/08/11 05:37:02;;;;;;;3.03;2.17;;;16.00;98.00;;;;;;5053687;28;20496;-70
2022/08/11 05:56:43;;;;;;;3.90;2.40;;;16.90;98.00;;;;;;5053271;28;20492;-70
2022/08/11 05:59:14;;;;;;;3.17;2.27;;;17.00;98.00;;;;;;5052930;28;20504;-70
2022/08/11 06:01:44;;;;;;;4.47;2.90;;;17.20;98.00;;;;;;5052633;28;20979;-69
2022/08/11 06:04:18;;;;;;;4.87;2.53;;;17.20;98.00;;;;;;5052345;28;20458;-70
2022/08/11 06:06:55;;;;;;;4.57;2.40;;;17.40;98.00;;;;;;5052660;28;20895;-69
2022/08/11 06:09:28;;;;;;;5.30;2.93;;;17.60;98.00;;;;;;5052432;28;20461;-70
2022/08/11 06:12:00;;;;;;;3.50;2.43;;;17.70;98.00;;;;;;5052255;28;20569;-70
2022/08/11 06:14:28;;;;;;;2.83;2.33;;;17.80;98.00;;;;;;5052138;28;20453;-70
2022/08/11 06:16:59;;;;;;;5.27;3.00;;;18.00;98.00;;;;;;5052079;28;20458;-70
2022/08/11 06:19:39;;;;;;;3.50;2.53;;;18.10;98.00;;;;;;5051792;28;20568;-70
2022/08/11 06:22:08;;;;;;;5.00;2.73;;;18.20;98.00;;;;;;5052006;28;20464;-70
2022/08/11 06:24:41;;;;;;;3.73;2.47;;;18.40;98.00;;;;;;5051980;28;20461;-70
2022/08/11 06:27:09;;;;;;;3.60;2.57;;;18.50;98.00;;;;;;5051710;28;20475;-70
2022/08/11 06:29:42;;;;;;;3.70;3.00;;;18.60;98.00;;;;;;5034199;28;20474;-69
2022/08/11 06:32:14;;;;;;;6.40;3.13;;;18.70;98.00;;;;;;5051691;28;20838;-70
2022/08/11 06:34:58;;;;;;;4.97;3.30;;;18.80;97.80;;;;;;5034300;28;20500;-70
2022/08/11 06:37:42;;;;;;;5.80;2.90;;;18.90;97.50;;;;;;5034857;28;20545;-69
2022/08/11 06:40:15;;;;;;;6.23;2.83;;;18.90;97.80;;;;;;5051638;28;21002;-69
2022/08/11 06:42:55;;;;;;;4.67;2.77;;;19.10;97.70;;;;;;5051782;28;20453;-69
2022/08/11 06:45:28;;;;;;;5.70;3.27;;;19.30;96.50;;;;;;5035071;28;20462;-69
2022/08/11 06:47:59;;;;;;;5.17;2.90;;;19.40;96.10;;;;;;5051656;28;20491;-70
2022/08/11 06:53:17;;;;;;;5.30;3.33;;;19.70;95.70;;;;;;5036963;28;20445;-69
2022/08/11 07:01:29;;;;;;;4.00;2.80;;;20.00;93.80;;;;;;5051292;28;20576;-69
2022/08/11 07:04:05;;;;;;;4.33;3.00;;;20.10;94.00;;;;;;5051376;28;20507;-69
2022/08/11 07:15:40;;;;;;;4.20;2.80;;;20.20;94.10;;;;;;5051370;28;20461;-70
2022/08/11 07:15:41;;;;;;;6.43;3.33;;;20.60;92.50;;;;;;5051158;28;20526;-65
2022/08/11 07:29:40;;;;;;;4.60;2.90;;;22.20;89.70;;;;;;5051073;28;20496;-66
2022/08/11 07:32:17;;;;;;;3.40;2.77;;;22.40;89.60;;;;;;5050786;28;20489;-65
2022/08/11 07:34:52;;;;;;;3.60;2.60;;;22.60;87.90;;;;;;5051212;28;20464;-65
2022/08/11 07:37:23;;;;;;;4.50;2.80;;;22.80;87.60;;;;;;5051156;28;20461;-65
2022/08/11 07:39:52;;;;;;;4.00;2.77;;;23.10;86.80;;;;;;5063209;28;20492;-66
2022/08/11 07:42:22;;;;;;;4.57;2.47;;;23.20;86.00;;;;;;5068292;28;20963;-66
2022/08/11 07:53:11;;;;;;;4.00;2.87;;;23.70;84.70;;;;;;5060122;28;20437;-70
2022/08/11 07:55:38;;;;;;;3.00;2.43;;;23.80;83.60;;;;;;5050437;28;20505;-70
2022/08/11 08:20:19;;;;;;;3.73;2.50;;;24.80;78.70;;;;;;5071398;28;20470;-70
2022/08/11 08:22:55;;;;;;;4.07;2.67;;;25.00;78.30;;;;;;5071525;28;20539;-71
2022/08/11 08:25:25;;;;;;;3.40;2.77;;;25.10;77.60;;;;;;5071523;28;20467;-69
2022/08/11 08:27:55;;;;;;;4.17;2.67;;;25.20;77.00;;;;;;5074658;28;20453;-70
2022/08/11 08:33:09;;;;;;;3.50;2.47;;;25.50;76.60;;;;;;5074918;28;20498;-70
2022/08/11 08:35:37;;;;;;;4.87;3.00;;;25.70;76.10;;;;;;5074976;28;20456;-70
2022/08/11 08:38:05;;;;;;;4.07;2.70;;;25.70;75.60;;;;;;5072592;28;20477;-69
2022/08/11 08:40:34;;;;;;;5.23;3.00;;;25.80;74.80;;;;;;5074786;28;20939;-70
2022/08/11 08:43:08;;;;;;;3.67;2.60;;;26.00;74.40;;;;;;5074813;28;20449;-70
2022/08/11 08:45:38;;;;;;;3.03;2.40;;;26.00;73.70;;;;;;5074733;28;20467;-70
2022/08/11 08:48:11;;;;;;;3.47;2.40;;;26.10;73.60;;;;;;5074785;28;20445;-69
2022/08/11 08:53:35;;;;;;;2.93;2.10;;;26.30;72.10;;;;;;5074887;28;20946;-70
2022/08/11 08:56:07;;;;;;;3.30;2.57;;;26.50;72.50;;;;;;5056930;28;20480;-69
2022/08/11 08:58:36;;;;;;;2.97;2.30;;;26.70;72.60;;;;;;5074507;28;20491;-69
2022/08/11 09:01:04;;;;;;;3.20;2.37;;;26.80;71.90;;;;;;5074162;28;20465;-69
2022/08/11 09:03:36;;;;;;;4.43;2.57;;;26.90;69.80;;;;;;5074377;28;20479;-70
2022/08/11 09:06:03;;;;;;;3.10;2.57;;;26.90;70.00;;;;;;5074325;28;20518;-69
2022/08/11 09:08:33;;;;;;;2.50;2.20;;;27.00;70.00;;;;;;5056473;28;21021;-69
2022/08/11 09:13:48;;;;;;;3.70;2.60;;;27.40;69.90;;;;;;5074174;28;20440;-70
2022/08/11 09:16:16;;;;;;;3.20;2.60;;;27.50;69.20;;;;;;5073878;28;20939;-68
2022/08/11 09:18:44;;;;;;;4.10;2.80;;;27.70;69.00;;;;;;5073911;28;20484;-68
2022/08/11 09:21:14;;;;;;;4.53;2.70;;;27.80;68.50;;;;;;5073898;28;20457;-68
2022/08/11 09:29:18;;;;;;;2.97;2.40;;;27.80;68.10;;;;;;5073838;28;20436;-67
2022/08/11 09:31:47;;;;;;;3.43;2.67;;;27.90;67.60;;;;;;5073590;28;20871;-68
2022/08/11 09:34:16;;;;;;;4.83;2.60;;;28.00;67.80;;;;;;5056037;28;20463;-68
2022/08/11 09:42:16;;;;;;;3.73;2.50;;;28.30;66.10;;;;;;5072909;28;20448;-65
2022/08/11 09:44:51;;;;;;;3.87;2.60;;;28.40;65.20;;;;;;5072855;28;20457;-66
2022/08/11 09:47:23;;;;;;;3.33;2.90;;;28.50;65.80;;;;;;5072810;28;20584;-65
2022/08/11 09:49:52;;;;;;;3.00;2.47;;;28.60;65.10;;;;;;5072935;28;20457;-66
2022/08/11 09:52:22;;;;;;;4.47;2.57;;;28.70;64.50;;;;;;5068420;28;20484;-66
2022/08/11 09:54:50;;;;;;;2.67;2.30;;;28.70;63.80;;;;;;5069812;28;20461;-66
2022/08/11 10:00:14;;;;;;;2.80;2.40;;;28.90;63.50;;;;;;5069777;28;20545;-66
2022/08/11 10:02:47;;;;;;;5.37;2.50;;;29.00;64.30;;;;;;5069680;28;20460;-67
2022/08/11 10:08:03;;;;;;;3.40;2.23;;;29.30;62.70;;;;;;5069646;28;20451;-66
2022/08/11 10:10:35;;;;;;;3.33;2.53;;;29.30;63.30;;;;;;5070173;28;20457;-66
2022/08/11 10:13:06;;;;;;;2.80;2.13;;;29.40;63.30;;;;;;5069897;28;20475;-66
2022/08/11 10:15:39;;;;;;;2.80;2.20;;;29.50;62.60;;;;;;5070078;28;20456;-66
2022/08/11 10:21:00;;;;;;;6.80;2.47;;;29.50;62.20;;;;;;5070010;28;20440;-66
2022/08/11 10:33:58;;;;;;;2.97;2.33;;;29.80;60.60;;;;;;5063132;28;20456;-63
2022/08/11 10:34:41;;;;;;;2.60;2.20;;;30.20;59.70;;;;;;5069050;28;20476;-70
2022/08/11 10:37:11;;;;;;;2.70;2.10;;;30.40;58.70;;;;;;5069620;28;20524;-70
2022/08/11 10:39:40;;;;;;;3.10;2.20;;;30.50;58.80;;;;;;5069697;28;20922;-71
2022/08/11 10:44:57;;;;;;;2.60;2.10;;;30.60;58.00;;;;;;5069873;28;20439;-66
2022/08/11 10:47:37;;;;;;;2.60;2.10;;;30.70;57.80;;;;;;5069969;28;20464;-70
2022/08/11 10:58:48;;;;;;;2.73;2.03;;;31.10;56.00;;;;;;5068786;28;20471;-67
2022/08/11 11:01:18;;;;;;;3.53;2.33;;;31.20;56.40;;;;;;5068695;28;20518;-67
2022/08/11 11:03:47;;;;;;;2.67;2.23;;;31.40;55.60;;;;;;5068547;28;20456;-66
2022/08/11 11:06:26;;;;;;;3.40;2.67;;;31.40;56.50;;;;;;5068246;28;20468;-64
2022/08/11 11:08:59;;;;;;;2.50;1.90;;;31.60;56.10;;;;;;5068594;28;20713;-65
2022/08/11 11:19:49;;;;;;;4.03;2.30;;;32.00;54.50;;;;;;5062398;28;20849;-64
2022/08/11 11:25:24;;;;;;;3.40;2.30;;;32.30;53.80;;;;;;5068900;28;20830;-64
2022/08/11 11:28:19;;;;;;;3.00;2.37;;;32.60;54.10;;;;;;5068488;28;20461;-66
2022/08/11 11:30:57;;;;;;;4.00;2.50;;;32.80;53.30;;;;;;5068399;28;20472;-67
2022/08/11 11:33:37;;;;;;;3.97;2.20;;;32.90;53.20;;;;;;5068479;28;21035;-64
2022/08/11 11:36:15;;;;;;;3.07;2.10;;;32.90;53.20;;;;;;5068554;28;20496;-65
2022/08/11 11:38:43;;;;;;;2.67;2.13;;;33.00;52.50;;;;;;5068068;28;20479;-65
2022/08/11 11:41:26;;;;;;;2.43;2.10;;;33.10;52.10;;;;;;5068553;28;20476;-66
2022/08/11 11:43:55;;;;;;;2.50;2.07;;;33.40;52.50;;;;;;5068599;28;20456;-66
2022/08/11 11:46:25;;;;;;;3.07;2.20;;;33.70;50.90;;;;;;5068791;28;20453;-66
2022/08/11 11:48:53;;;;;;;2.73;2.40;;;33.80;51.10;;;;;;5072371;28;20453;-67
2022/08/11 11:51:22;;;;;;;3.15;2.25;;;34.10;50.60;;;;;;5071606;28;20446;-71
2022/08/11 11:53:50;;;;;;;2.97;2.37;;;33.70;51.50;;;;;;5072600;28;20203;-68
2022/08/11 11:56:18;;;;;;;2.67;2.37;;;33.60;51.60;;;;;;5072586;28;20453;-67
2022/08/11 12:01:34;;;;;;;3.40;2.50;;;33.30;51.50;;;;;;5072354;28;20441;-67
2022/08/11 12:04:06;;;;;;;3.03;2.43;;;33.30;51.80;;;;;;5072490;28;20966;-64
2022/08/11 12:06:35;;;;;;;2.97;2.27;;;33.30;51.40;;;;;;5072073;28;20452;-64
2022/08/11 12:09:03;;;;;;;2.92;2.30;;;33.30;51.70;;;;;;5071722;28;20450;-74
2022/08/11 12:14:20;;;;;;;2.17;1.97;;;33.40;52.90;;;;;;5072429;28;20452;-76
2022/08/11 12:16:49;;;;;;;3.17;2.50;;;33.60;51.80;;;;;;5072438;28;20483;-74
2022/08/11 12:19:20;;;;;;;2.50;2.13;;;33.80;51.20;;;;;;5072212;28;20603;-70
2022/08/11 12:27:21;;;;;;;3.13;2.30;;;34.10;50.40;;;;;;5072095;28;20448;-73
2022/08/11 12:29:51;;;;;;;2.97;2.25;;;34.40;50.50;;;;;;5071375;28;20794;-73
2022/08/11 12:32:20;;;;;;;2.90;2.47;;;34.40;49.90;;;;;;5071509;28;20290;-73
2022/08/11 12:34:47;;;;;;;2.83;2.30;;;34.30;48.60;;;;;;5071804;28;20456;-73
2022/08/11 12:37:22;;;;;;;4.13;2.37;;;34.10;49.00;;;;;;5071643;28;20456;-72
2022/08/11 12:45:29;;;;;;;2.70;2.20;;;34.20;49.60;;;;;;5036317;28;20823;-73
2022/08/11 12:53:46;;;;;;;2.50;2.13;;;34.40;49.30;;;;;;5065005;28;20456;-72
2022/08/11 13:07:19;;;;;;;2.90;2.40;;;35.30;48.30;;;;;;5070662;28;20460;-72
2022/08/11 13:09:49;;;;;;;3.53;2.43;;;35.30;48.30;;;;;;5052918;28;20476;-73
2022/08/11 13:15:02;;;;;;;3.63;2.53;;;35.60;47.50;;;;;;5070294;28;20962;-73
2022/08/11 13:17:30;;;;;;;2.97;2.33;;;35.90;46.40;;;;;;5069804;28;20456;-72
2022/08/11 13:19:59;;;;;;;2.90;2.30;;;35.80;47.20;;;;;;5070607;28;20480;-72
2022/08/11 13:22:26;;;;;;;3.60;2.40;;;36.20;46.80;;;;;;5070934;28;20456;-71
2022/08/11 13:24:57;;;;;;;2.60;2.13;;;36.20;46.20;;;;;;5052410;28;20471;-72
2022/08/11 13:27:25;;;;;;;2.95;2.22;;;35.90;46.30;;;;;;5069305;28;20445;-74
2022/08/11 13:31:09;;;;;;;2.20;2.10;;;35.70;47.50;;;;;;5070277;28;20218;-74
2022/08/11 13:32:43;;;;;;;4.70;2.60;;;36.10;47.00;;;;;;5070243;28;20457;-75
2022/08/11 13:35:14;;;;;;;3.37;2.27;;;36.50;46.40;;;;;;5070549;28;20465;-75
2022/08/11 13:37:45;;;;;;;4.33;2.40;;;36.40;46.60;;;;;;5070727;28;20546;-73
2022/08/11 13:40:17;;;;;;;2.50;2.20;;;36.70;45.40;;;;;;5070100;28;20496;-75
2022/08/11 13:42:45;;;;;;;2.53;2.30;;;36.90;45.40;;;;;;5070464;28;20468;-73
2022/08/11 13:45:13;;;;;;;2.57;2.23;;;36.60;45.40;;;;;;5071195;28;20457;-76
2022/08/11 13:47:42;;;;;;;3.43;2.30;;;36.50;45.70;;;;;;5072845;28;20548;-72
2022/08/11 13:50:12;;;;;;;2.37;2.00;;;36.30;45.60;;;;;;5072728;28;20457;-74
2022/08/11 13:52:40;;;;;;;3.57;2.57;;;36.70;45.00;;;;;;5072494;28;20449;-72
2022/08/11 13:55:20;;;;;;;2.70;2.20;;;36.70;44.60;;;;;;5072603;28;20524;-73
2022/08/11 13:57:56;;;;;;;3.80;2.67;;;36.50;44.80;;;;;;5072867;28;20467;-73
2022/08/11 14:00:23;;;;;;;2.53;2.30;;;36.70;44.80;;;;;;5073067;28;20483;-76
2022/08/11 14:02:54;;;;;;;2.73;2.60;;;36.80;45.30;;;;;;5072586;28;20460;-72
2022/08/11 14:05:27;;;;;;;2.57;2.10;;;36.90;44.90;;;;;;5072554;28;20463;-73
2022/08/11 14:07:59;;;;;;;3.40;2.43;;;36.90;43.90;;;;;;5072309;28;20987;-73
2022/08/11 14:10:32;;;;;;;2.40;2.07;;;36.60;44.80;;;;;;5071711;28;20464;-73
2022/08/11 14:15:49;;;;;;;2.97;2.33;;;37.00;44.80;;;;;;5072228;28;20448;-74
2022/08/11 14:18:20;;;;;;;2.63;2.20;;;36.90;45.10;;;;;;5071946;28;20834;-73
2022/08/11 14:23:41;;;;;;;2.37;2.23;;;37.60;44.40;;;;;;5072972;28;20440;-73
2022/08/11 14:26:26;;;;;;;3.20;2.20;;;37.60;44.10;;;;;;5072646;28;20464;-73
2022/08/11 14:28:58;;;;;;;2.47;2.03;;;37.70;43.50;;;;;;5072415;28;20472;-73
2022/08/11 14:31:27;;;;;;;2.53;2.30;;;37.70;43.20;;;;;;5072448;28;20548;-73
2022/08/11 14:33:59;;;;;;;2.50;2.10;;;37.50;44.20;;;;;;5072504;28;20449;-71
2022/08/11 14:36:31;;;;;;;3.10;2.40;;;37.70;43.90;;;;;;5072686;28;20460;-71
2022/08/11 14:39:03;;;;;;;2.57;2.30;;;37.70;43.60;;;;;;5072203;28;20503;-72
2022/08/11 14:47:06;;;;;;;2.77;2.40;;;37.60;43.90;;;;;;5072299;28;20522;-73
2022/08/11 14:49:36;;;;;;;2.50;2.00;;;37.30;43.40;;;;;;5055333;28;20981;-70
2022/08/11 14:52:07;;;;;;;2.93;2.30;;;37.10;43.80;;;;;;5072246;28;20467;-70
2022/08/11 14:57:21;;;;;;;2.83;2.20;;;36.80;43.70;;;;;;5072265;28;20436;-69
2022/08/11 14:59:50;;;;;;;3.10;2.33;;;36.80;44.00;;;;;;5071991;28;20477;-70
2022/08/11 15:05:06;;;;;;;3.17;2.13;;;36.70;44.70;;;;;;5071978;28;20518;-70
2022/08/11 15:07:36;;;;;;;3.17;2.23;;;36.70;44.60;;;;;;5072034;28;20539;-70
2022/08/11 15:10:06;;;;;;;3.00;2.20;;;36.70;43.70;;;;;;5054268;28;20455;-69
2022/08/11 15:12:36;;;;;;;2.73;2.30;;;36.70;44.60;;;;;;5071930;28;20806;-69
2022/08/11 15:17:54;;;;;;;3.63;2.60;;;36.60;44.70;;;;;;5071867;28;20475;-69
2022/08/11 15:25:56;;;;;;;6.00;2.33;;;36.20;45.20;;;;;;5071868;28;20953;-69
2022/08/11 15:48:10;;;;;;;2.60;2.23;;;36.30;45.10;;;;;;5071760;28;20483;-69
2022/08/11 15:50:42;;;;;;;2.50;2.23;;;36.30;44.90;;;;;;5071741;28;20456;-70
2022/08/11 15:53:11;;;;;;;3.10;2.30;;;36.40;44.60;;;;;;5071703;28;20461;-69
2022/08/11 15:55:42;;;;;;;4.07;2.83;;;36.30;44.90;;;;;;5071821;28;20468;-69
2022/08/11 16:06:35;;;;;;;2.47;2.27;;;36.00;45.20;;;;;;5071499;28;20441;-70
2022/08/11 16:09:04;;;;;;;2.40;2.17;;;35.80;45.20;;;;;;5071310;28;20479;-69
2022/08/11 16:11:34;;;;;;;5.47;2.30;;;35.60;45.60;;;;;;5071366;28;20457;-69
2022/08/11 16:16:49;;;;;;;3.60;2.50;;;35.10;45.70;;;;;;5070874;28;21005;-69
2022/08/11 16:19:19;;;;;;;2.27;2.10;;;34.80;46.30;;;;;;5071260;28;20453;-69
2022/08/11 16:21:50;;;;;;;4.23;3.27;;;34.40;46.70;;;;;;5070391;28;21055;-69
2022/08/11 16:24:20;;;;;;;2.90;2.30;;;34.40;46.90;;;;;;5070552;28;20449;-69
2022/08/11 16:26:49;;;;;;;4.20;2.20;;;34.40;47.20;;;;;;5070195;28;20465;-69
2022/08/11 16:29:17;;;;;;;3.27;2.23;;;34.40;47.30;;;;;;5070457;28;20809;-69
2022/08/11 16:32:15;;;;;;;3.10;2.10;;;34.40;47.10;;;;;;5070081;28;20457;-69
2022/08/11 16:40:10;;;;;;;2.90;2.17;;;34.10;48.00;;;;;;5074066;28;20525;-69
2022/08/11 16:48:10;;;;;;;3.60;2.53;;;33.70;47.70;;;;;;5073886;28;20460;-69
2022/08/11 16:50:41;;;;;;;4.10;2.53;;;33.50;47.90;;;;;;5073681;28;20449;-69
2022/08/11 16:53:08;;;;;;;2.77;2.10;;;33.50;48.00;;;;;;5073967;28;20467;-69
2022/08/11 16:55:36;;;;;;;3.63;2.80;;;33.60;48.00;;;;;;5055820;28;20449;-69
2022/08/11 17:00:53;;;;;;;3.03;2.33;;;33.20;48.00;;;;;;5073738;28;21001;-69
2022/08/11 17:14:38;;;;;;;2.10;2.00;;;32.80;48.20;;;;;;5073577;28;20449;-70
2022/08/11 17:17:11;;;;;;;3.10;2.37;;;32.50;49.10;;;;;;5073332;28;20452;-70
2022/08/11 17:19:44;;;;;;;2.90;2.10;;;32.40;49.50;;;;;;5073365;28;20464;-69
2022/08/11 17:25:00;;;;;;;4.10;2.40;;;32.20;49.60;;;;;;5073372;28;20819;-69
2022/08/11 17:27:28;;;;;;;4.00;2.37;;;32.20;49.70;;;;;;5073205;28;20492;-70
2022/08/11 17:29:58;;;;;;;2.87;2.20;;;32.10;49.80;;;;;;5073294;28;20496;-70
2022/08/11 17:35:33;;;;;;;2.53;2.30;;;32.00;50.50;;;;;;5058347;28;20475;-70
2022/08/11 17:38:06;;;;;;;3.57;2.40;;;31.80;50.20;;;;;;5072825;28;20514;-70
2022/08/11 17:40:35;;;;;;;2.80;2.17;;;31.80;50.20;;;;;;5072928;28;20485;-70
2022/08/11 17:48:37;;;;;;;2.63;2.20;;;31.50;50.90;;;;;;5072793;28;20487;-70
2022/08/11 17:51:07;;;;;;;2.20;2.10;;;31.40;51.10;;;;;;5072760;28;20449;-70
2022/08/11 18:04:47;;;;;;;2.47;2.23;;;30.80;51.80;;;;;;5071687;28;20460;-70
